URSS

Sochi International Airport

Sochi, Russian Federation
TAF URSS 180758Z 1809/1909 23004G09MPS 9999 NSC TEMPO 1809/1811 18004G09MPS BECMG 1811/1812 28004G09MPS BECMG 1815/1817 05005MPS BECMG 1908/1909 28005G10MPS
Issued Valid From Valid To
Oct-18 @ 07:58 UTC
(4 hours ago)
Oct-18 @ 09:00 UTC
(3 hours ago)
Oct-19 @ 09:00 UTC
(in 21 hours)
Expired Click to View Oct-18 @ 09:00 to Oct-18 @ 11:00
TAF URSS 180758Z 1809/1909 23004G09MPS 9999 NSC
Wind Visibility Clouds
230° at 8 knots
 Gusting to 17 knots
10,000+ meters
  • No significant clouds
Expired Click to View Oct-18 @ 09:00 to Oct-18 @ 11:00
TEMPO 1809/1811 18004G09MPS
Wind
180° at 8 knots
 Gusting to 17 knots
Becoming Oct-18 @ 11:00 to Oct-18 @ 15:00
BECMG 1811/1812 28004G09MPS
Wind Visibility Clouds
280° at 8 knots
 Gusting to 17 knots
10,000+ meters
  • No significant clouds
Becoming Oct-18 @ 15:00 to Oct-19 @ 08:00
BECMG 1815/1817 05005MPS
Wind Visibility Clouds
50° at 10 knots 10,000+ meters
  • No significant clouds
Becoming Oct-19 @ 08:00 to Oct-19 @ 09:00
BECMG 1908/1909 28005G10MPS
Wind Visibility Clouds
280° at 10 knots
 Gusting to 19 knots
10,000+ meters
  • No significant clouds
TAF URSS 180758Z 1809/1909 23004G09MPS 9999 NSC TEMPO 1809/1811 18004G09MPS BECMG 1811/1812 28004G09MPS BECMG 1815/1817 05005MPS BECMG 1908/1909 28005G10MPS
Issued Oct-18 @ 07:58 UTC
(4 hours ago)
Valid From Oct-18 @ 09:00 UTC
(3 hours ago)
Valid To Oct-19 @ 09:00 UTC
(in 21 hours)
Oct-18 @ 09:00 - Oct-18 @ 11:00
Wind Visibility
230° at 8 knots
 Gusting to 17 knots
10,000+ meters
Clouds
  • No significant clouds
Oct-18 @ 09:00 - Oct-18 @ 11:00
Wind
180° at 8 knots
 Gusting to 17 knots
Becoming Oct-18 @ 11:00 - Oct-18 @ 15:00
Wind Visibility
280° at 8 knots
 Gusting to 17 knots
10,000+ meters
Clouds
  • No significant clouds
Becoming Oct-18 @ 15:00 - Oct-19 @ 08:00
Wind Visibility
50° at 10 knots 10,000+ meters
Clouds
  • No significant clouds
Becoming Oct-19 @ 08:00 - Oct-19 @ 09:00
Wind Visibility
280° at 10 knots
 Gusting to 19 knots
10,000+ meters
Clouds
  • No significant clouds